This is the latest recevied weather packets stored in our database for station/object OE6PLD-13. If no packets are shown the sender has not sent any weather packets the latest 10 day(s).
| Time | Temp. | Humidity | Pressure | Rain* | Wind** | Luminosity | Snow |
|---|---|---|---|---|---|---|---|
| 1777896598 | 27.22° C | 36% | 1013.1 hPa | 0.76 mm | - | 589 W/m² | - |
| 1777896414 | 27.22° C | 35% | 1013.3 hPa | 0.76 mm | - | 587 W/m² | - |
| 1777896231 | 26.67° C | 37% | 1013.2 hPa | 0.76 mm | - | 588 W/m² | - |
| 1777896048 | 26.11° C | 37% | 1013.2 hPa | 0.76 mm | - | 590 W/m² | - |
| 1777895864 | 26.67° C | 35% | 1010.1 hPa | 0.76 mm | - | 582 W/m² | - |
| 1777895681 | 26.11° C | 37% | 1010.1 hPa | 0.76 mm | - | 509 W/m² | - |
| 1777895498 | 25.56° C | 40% | 1010.3 hPa | 0.76 mm | - | 549 W/m² | - |
| 1777895314 | 25.56° C | 38% | 1010.1 hPa | 0.76 mm | - | 577 W/m² | - |
| 1777895131 | 25° C | 39% | 1010.2 hPa | 0.76 mm | - | 427 W/m² | - |
| 1777894948 | 25.56° C | 39% | 1010.4 hPa | 0.76 mm | - | 411 W/m² | - |
| 1777894764 | 25.56° C | 38% | 1010.4 hPa | 0.76 mm | - | 475 W/m² | - |
| 1777894581 | 26.11° C | 38% | 1010.4 hPa | 0.76 mm | - | 622 W/m² | - |
| 1777894398 | 25.56° C | 37% | 1010.4 hPa | 0.76 mm | - | 649 W/m² | - |
| 1777894214 | 25° C | 39% | 1010.4 hPa | 0.76 mm | - | 639 W/m² | - |
| 1777894031 | 24.44° C | 39% | 1010.6 hPa | 0.76 mm | - | 671 W/m² | - |
| 1777893848 | 24.44° C | 37% | 1010.5 hPa | 0.76 mm | - | 662 W/m² | - |
| 1777893664 | 24.44° C | 37% | 1010.6 hPa | 0.76 mm | - | 645 W/m² | - |
| 1777893481 | 23.89° C | 37% | 1010.7 hPa | 0.76 mm | - | 634 W/m² | - |
| 1777893298 | 24.44° C | 37% | 1010.7 hPa | 0.76 mm | - | 623 W/m² | - |
| 1777893114 | 24.44° C | 37% | 1010.8 hPa | 0.76 mm | - | 491 W/m² | - |
| 1777892931 | 24.44° C | 38% | 1010.8 hPa | 0.76 mm | - | 582 W/m² | - |
| 1777892747 | 24.44° C | 39% | 1010.8 hPa | 0.76 mm | - | 558 W/m² | - |
| 1777892564 | 25° C | 39% | 1010.9 hPa | 0.76 mm | - | 449 W/m² | - |
| 1777892381 | 24.44° C | 40% | 1010.9 hPa | 0.76 mm | - | 533 W/m² | - |
| 1777892198 | 25° C | 38% | 1011.1 hPa | 0.76 mm | - | 538 W/m² | - |
* Rain latest hour (hover to see other rain measurements)
** Current wind speed in m/s (hover to see current wind gust speed)